^^
Grace C. Lehan Memorial Weather Station Historical Data
Daily Summary for January 21, 2022 Units:  Metric    English   Both
Daily Weekly Monthly Yearly
  High: Low: Average:
Temperature: -7.3 °C -10.5 °C -9.2 °C
Dew Point: -12.9 °C -16.1 °C -14.6 °C
Humidity: 66.3% 63.1% 65%
Wind Speed: 12.7km/h 2.3km/h 7.9km/h
Wind Gust: 24.1km/h - -
Wind- - NW
Pressure: 1032.1 hPa 1029 hPa -
Precipitation: 0 mm    
 
 
Tabular Data for January 21, 2022
Time Temperature Dew Point Pressure Wind Wind Speed Wind Gust Humidity Rainfall Rate (Hourly) solar
00:04 -7.3 °C -12.9 °C 1029.3 hPa NW 11.7 km/h 20.9 km/h 64% 0 mm 0 W/m2
00:09 -7.4 °C -13 °C 1029.3 hPa NW 7.4 km/h 20.9 km/h 64% 0 mm 0 W/m2
00:14 -7.4 °C -13.1 °C 1029.3 hPa NW 7.9 km/h 20.9 km/h 64% 0 mm 0 W/m2
00:19 -7.5 °C -13 °C 1029.3 hPa NW 8.4 km/h 20.9 km/h 64.8% 0 mm 0 W/m2
00:24 -7.6 °C -13 °C 1029.3 hPa NW 3.1 km/h 20.9 km/h 65% 0 mm 0 W/m2
00:29 -7.7 °C -13.1 °C 1029 hPa NNW 4.2 km/h 20.9 km/h 65.3% 0 mm 0 W/m2
00:34 -7.7 °C -13.2 °C 1029 hPa NW 2.3 km/h 20.9 km/h 65% 0 mm 0 W/m2
00:39 -7.8 °C -13.1 °C 1029 hPa NNW 6.8 km/h 16.1 km/h 65.7% 0 mm 0 W/m2
00:44 -7.9 °C -13.3 °C 1029.3 hPa NW 11.1 km/h 22.5 km/h 65.2% 0 mm 0 W/m2
00:49 -7.9 °C -13.4 °C 1029.3 hPa NW 9.5 km/h 22.5 km/h 65% 0 mm 0 W/m2
00:54 -8 °C -13.4 °C 1029.3 hPa NW 9.8 km/h 22.5 km/h 65% 0 mm 0 W/m2
00:59 -8.1 °C -13.5 °C 1029.3 hPa NW 8.2 km/h 22.5 km/h 65% 0 mm 0 W/m2
01:04 -8.2 °C -13.6 °C 1029.3 hPa NW 10.6 km/h 22.5 km/h 65% 0 mm 0 W/m2
01:09 -8.2 °C -13.6 °C 1029.3 hPa NW 11.1 km/h 24.1 km/h 65.5% 0 mm 0 W/m2
01:14 -8.3 °C -13.6 °C 1029.3 hPa NW 10.1 km/h 24.1 km/h 65.4% 0 mm 0 W/m2
01:19 -8.4 °C -13.8 °C 1029.3 hPa NW 9 km/h 24.1 km/h 65% 0 mm 0 W/m2
01:24 -8.4 °C -13.7 °C 1029.3 hPa NW 5.8 km/h 24.1 km/h 65.5% 0 mm 0 W/m2
01:29 -8.5 °C -13.7 °C 1029.3 hPa NW 4.8 km/h 24.1 km/h 66% 0 mm 0 W/m2
01:34 -8.6 °C -13.7 °C 1029.7 hPa NW 9 km/h 24.1 km/h 66% 0 mm 0 W/m2
01:39 -8.6 °C -13.8 °C 1029.7 hPa NW 8.5 km/h 20.9 km/h 66% 0 mm 0 W/m2
01:44 -8.6 °C -13.8 °C 1029.7 hPa NW 6.3 km/h 20.9 km/h 66.2% 0 mm 0 W/m2
01:49 -8.7 °C -13.8 °C 1029.7 hPa NNW 9.7 km/h 20.9 km/h 66.3% 0 mm 0 W/m2
01:54 -8.7 °C -13.9 °C 1029.7 hPa NNW 10.5 km/h 22.5 km/h 66% 0 mm 0 W/m2
01:59 -8.8 °C -14.1 °C 1029.7 hPa NNW 6.8 km/h 22.5 km/h 65.7% 0 mm 0 W/m2
02:04 -8.8 °C -14 °C 1029.7 hPa NW 7.2 km/h 22.5 km/h 66% 0 mm 0 W/m2
02:09 -8.9 °C -14.1 °C 1029.7 hPa NW 7.4 km/h 24.1 km/h 66% 0 mm 0 W/m2
02:14 -8.9 °C -14.1 °C 1029.7 hPa NW 11.3 km/h 24.1 km/h 66% 0 mm 0 W/m2
02:19 -8.9 °C -14.1 °C 1030 hPa NNW 8.4 km/h 24.1 km/h 66% 0 mm 0 W/m2
02:24 -9 °C -14.3 °C 1030 hPa NNW 7.9 km/h 24.1 km/h 65.5% 0 mm 0 W/m2
02:29 -9.1 °C -14.2 °C 1030 hPa NW 4.8 km/h 24.1 km/h 65.8% 0 mm 0 W/m2
02:34 -9.1 °C -14.4 °C 1030 hPa NW 7.2 km/h 24.1 km/h 65% 0 mm 0 W/m2
02:39 -9.1 °C -14.4 °C 1030 hPa NW 8.4 km/h 20.9 km/h 65% 0 mm 0 W/m2
02:44 -9.2 °C -14.6 °C 1030 hPa NNW 10.9 km/h 24.1 km/h 64.8% 0 mm 0 W/m2
02:49 -9.2 °C -14.7 °C 1030 hPa NNW 10.5 km/h 24.1 km/h 64.2% 0 mm 0 W/m2
02:54 -9.2 °C -14.6 °C 1030 hPa NW 9 km/h 24.1 km/h 65% 0 mm 0 W/m2
02:59 -9.3 °C -14.6 °C 1030 hPa NNW 9.7 km/h 24.1 km/h 65% 0 mm 0 W/m2
03:04 -9.3 °C -14.8 °C 1030.4 hPa NNW 8.5 km/h 24.1 km/h 64.1% 0 mm 0 W/m2
03:09 -9.3 °C -14.9 °C 1030 hPa NW 11.9 km/h 24.1 km/h 64% 0 mm 0 W/m2
03:14 -9.3 °C -14.9 °C 1030 hPa NNW 4.7 km/h 24.1 km/h 64% 0 mm 0 W/m2
03:19 -9.4 °C -14.8 °C 1030 hPa NNW 7.9 km/h 24.1 km/h 64.9% 0 mm 0 W/m2
03:24 -9.4 °C -14.9 °C 1030 hPa NW 6.9 km/h 24.1 km/h 64.1% 0 mm 0 W/m2
03:29 -9.5 °C -15.1 °C 1030 hPa NW 12.7 km/h 24.1 km/h 64% 0 mm 0 W/m2
03:34 -9.6 °C -15.1 °C 1030 hPa NNW 6 km/h 24.1 km/h 64% 0 mm 0 W/m2
03:39 -9.6 °C -15.1 °C 1030 hPa NW 10.6 km/h 20.9 km/h 64% 0 mm 0 W/m2
03:44 -9.6 °C -15.2 °C 1030 hPa NNW 6.9 km/h 24.1 km/h 64% 0 mm 0 W/m2
03:49 -9.7 °C -15.2 °C 1030 hPa NW 7.7 km/h 24.1 km/h 64% 0 mm 0 W/m2
03:54 -9.7 °C -15.2 °C 1030 hPa NW 6.8 km/h 24.1 km/h 64% 0 mm 0 W/m2
03:59 -9.7 °C -15.3 °C 1030.4 hPa NW 6.8 km/h 24.1 km/h 64% 0 mm 0 W/m2
04:00 -9.8 °C -15.3 °C 1030.4 hPa NW 4.8 km/h 24.1 km/h 64% 0 mm 0 W/m2
04:09 -9.8 °C -15.3 °C 1030.7 hPa NW 8.4 km/h 16.1 km/h 64% 0 mm 0 W/m2
04:14 -9.9 °C -15.4 °C 1030.7 hPa NW 4 km/h 17.7 km/h 63.6% 0 mm 0 W/m2
04:19 -9.9 °C -15.4 °C 1030.7 hPa NNW 8.9 km/h 17.7 km/h 63.9% 0 mm 0 W/m2
04:24 -10 °C -15.7 °C 1030.7 hPa NW 8.5 km/h 24.1 km/h 63.1% 0 mm 0 W/m2
04:29 -10 °C -15.4 °C 1030.7 hPa NNW 5 km/h 24.1 km/h 64.5% 0 mm 0 W/m2
04:34 -10.1 °C -15.6 °C 1030.7 hPa NW 6.9 km/h 24.1 km/h 64% 0 mm 0 W/m2
04:39 -10.1 °C -15.6 °C 1030.7 hPa NNW 5.8 km/h 19.3 km/h 64% 0 mm 0 W/m2
04:44 -10.1 °C -15.6 °C 1030.7 hPa NW 6.1 km/h 19.3 km/h 64% 0 mm 0 W/m2
04:49 -10.2 °C -15.7 °C 1030.7 hPa NW 7.7 km/h 19.3 km/h 64% 0 mm 0 W/m2
04:54 -10.2 °C -15.7 °C 1030.7 hPa NW 7.2 km/h 19.3 km/h 64% 0 mm 0 W/m2
04:59 -10.2 °C -15.7 °C 1031 hPa NNW 5.8 km/h 19.3 km/h 64% 0 mm 0 W/m2
05:04 -10.2 °C -15.7 °C 1031 hPa NW 7.4 km/h 19.3 km/h 64% 0 mm 0 W/m2
05:09 -10.3 °C -15.8 °C 1031 hPa NW 7.9 km/h 22.5 km/h 64% 0 mm 0 W/m2
05:14 -10.3 °C -15.8 °C 1031 hPa NNW 9.3 km/h 22.5 km/h 64% 0 mm 0 W/m2
05:19 -10.3 °C -15.9 °C 1031 hPa NNW 7.4 km/h 22.5 km/h 63.2% 0 mm 0 W/m2
05:24 -10.3 °C -15.9 °C 1031 hPa NW 6 km/h 22.5 km/h 63.7% 0 mm 0 W/m2
05:29 -10.3 °C -15.8 °C 1031.4 hPa NNW 7.2 km/h 22.5 km/h 64% 0 mm 0 W/m2
05:34 -10.3 °C -16 °C 1031.4 hPa NNW 8.5 km/h 22.5 km/h 63.1% 0 mm 0 W/m2
05:39 -10.3 °C -16 °C 1031.7 hPa NNW 7.4 km/h 20.9 km/h 63.3% 0 mm 0 W/m2
05:44 -10.4 °C -15.9 °C 1031.7 hPa NNW 9.2 km/h 22.5 km/h 63.7% 0 mm 0 W/m2
05:49 -10.4 °C -15.9 °C 1031.7 hPa NNW 10.8 km/h 22.5 km/h 64% 0 mm 0 W/m2
05:54 -10.4 °C -16.1 °C 1032.1 hPa NNW 6.6 km/h 22.5 km/h 63.5% 0 mm 0 W/m2
05:58 -10.5 °C -15.9 °C 1032.1 hPa NW 4 km/h 22.5 km/h 64.4% 0 mm 0 W/m2
Hartford County Weather
Compliments of Weather Underground - 2 mb